Time;durP1;ratioP1;P1;durP2;ratioP2;P2;SDS_P1;SDS_P2;PMS_P1;PMS_P2;Temp;Humidity;BMP_temperature;BMP_pressure;BME280_temperature;BME280_humidity;BME280_pressure;Samples;Min_cycle;Max_cycle;Signal;HPM_P1;HPM_P2
2022/01/09 00:02:07;;;;;;;0.60;0.60;;;;;4.20;96182.00;;;;5097771;28;20204;-79
2022/01/09 00:04:34;;;;;;;0.60;0.60;;;5.00;87.00;4.30;96178.00;;;;5114531;28;20227;-78
2022/01/09 00:07:03;;;;;;;0.60;0.60;;;5.10;87.40;4.20;96170.00;;;;5115408;28;20194;-78
2022/01/09 00:09:31;;;;;;;0.60;0.60;;;5.00;87.40;4.30;96172.00;;;;5115386;28;20277;-78
2022/01/09 00:12:00;;;;;;;0.60;0.60;;;5.00;86.60;4.20;96170.00;;;;5115362;28;20236;-80
2022/01/09 00:14:26;;;;;;;0.63;0.63;;;5.00;87.70;4.20;96162.00;;;;5114482;28;20230;-78
2022/01/09 00:16:53;;;;;;;0.60;0.60;;;5.00;88.40;4.30;96164.00;;;;5097459;28;20694;-78
2022/01/09 00:19:20;;;;;;;0.80;0.80;;;5.10;88.00;4.10;96148.00;;;;5115440;28;20354;-78
2022/01/09 00:21:49;;;;;;;0.60;0.60;;;5.00;89.10;4.20;96148.00;;;;5115312;28;20198;-79
2022/01/09 00:24:15;;;;;;;0.50;0.50;;;5.00;89.40;4.20;96135.00;;;;5115744;28;20202;-79
2022/01/09 00:26:42;;;;;;;0.60;0.60;;;5.00;88.60;4.30;96129.00;;;;5115961;28;20198;-77
2022/01/09 00:29:10;;;;;;;0.60;0.60;;;5.10;88.20;4.10;96129.00;;;;5097323;28;20285;-76
2022/01/09 00:31:37;;;;;;;0.60;0.60;;;4.90;89.10;4.20;96132.00;;;;5097535;28;20237;-78
2022/01/09 00:34:03;;;;;;;0.60;0.60;;;5.00;89.00;4.10;96130.00;;;;5115476;28;20351;-78
2022/01/09 00:36:33;;;;;;;0.60;0.60;;;4.90;89.00;4.10;96124.00;;;;5114989;28;20293;-78
2022/01/09 00:39:03;;;;;;;0.60;0.60;;;4.90;89.70;4.10;96115.00;;;;5114672;28;20225;-78
2022/01/09 00:41:30;;;;;;;0.60;0.60;;;4.90;90.30;4.10;96114.00;;;;5115077;28;20193;-78
2022/01/09 00:43:56;;;;;;;0.60;0.60;;;4.90;89.60;4.10;96108.00;;;;5114778;28;20205;-77
2022/01/09 00:46:23;;;;;;;0.60;0.60;;;;;4.10;96112.00;;;;5114893;28;20221;-78
2022/01/09 00:48:49;;;;;;;0.70;0.70;;;4.90;89.30;4.10;96107.00;;;;5115007;28;20190;-78
2022/01/09 00:51:16;;;;;;;0.60;0.60;;;4.90;90.10;3.90;96096.00;;;;5096890;28;20703;-78
2022/01/09 00:53:45;;;;;;;0.60;0.60;;;4.80;90.60;4.00;96102.00;;;;5097244;28;20217;-79
2022/01/09 00:56:12;;;;;;;0.60;0.60;;;4.80;90.50;4.00;96095.00;;;;5121970;28;20271;-78
2022/01/09 00:58:38;;;;;;;0.80;0.80;;;4.80;90.00;4.00;96107.00;;;;5101205;28;20273;-79
2022/01/09 01:01:07;;;;;;;0.60;0.60;;;4.80;89.60;3.90;96097.00;;;;5115668;28;20189;-77
2022/01/09 01:03:34;;;;;;;0.50;0.50;;;4.70;90.20;3.90;96086.00;;;;5115546;28;20208;-79
2022/01/09 01:06:00;;;;;;;0.50;0.50;;;4.70;90.10;3.90;96086.00;;;;5115415;28;20293;-79
2022/01/09 01:08:30;;;;;;;0.60;0.60;;;4.70;90.60;4.00;96087.00;;;;5116283;28;20218;-78
2022/01/09 01:10:59;;;;;;;0.50;0.50;;;4.80;90.40;4.00;96090.00;;;;5115522;28;20220;-76
2022/01/09 01:13:26;;;;;;;0.60;0.60;;;4.80;89.60;3.90;96084.00;;;;5116104;28;20774;-78
2022/01/09 01:15:55;;;;;;;0.60;0.60;;;4.70;89.60;4.00;96067.00;;;;5120347;28;20658;-77
2022/01/09 01:18:22;;;;;;;0.50;0.50;;;4.70;90.20;4.00;96082.00;;;;5122925;28;20225;-79
2022/01/09 01:20:48;;;;;;;0.60;0.60;;;4.80;89.80;4.10;96074.00;;;;5106039;28;20206;-79
2022/01/09 01:23:15;;;;;;;0.60;0.60;;;4.90;88.70;4.00;96075.00;;;;5138100;28;20189;-79
2022/01/09 01:25:50;;;;;;;0.60;0.60;;;4.80;88.90;3.90;96078.00;;;;5130515;28;20198;-77
2022/01/09 01:28:17;;;;;;;0.80;0.80;;;4.70;89.50;3.90;96064.00;;;;5131946;28;20214;-77
2022/01/09 01:30:44;;;;;;;0.50;0.50;;;4.70;89.60;3.90;96087.00;;;;5130870;28;20267;-77
2022/01/09 01:33:10;;;;;;;0.67;0.67;;;4.70;90.50;4.00;96079.00;;;;5107383;28;20229;-78
2022/01/09 01:35:37;;;;;;;0.50;0.50;;;4.80;89.80;3.90;96077.00;;;;5122474;28;20303;-78
2022/01/09 01:38:05;;;;;;;0.60;0.60;;;4.80;90.20;4.00;96077.00;;;;5121323;28;20202;-76
2022/01/09 01:40:32;;;;;;;0.50;0.50;;;4.80;89.80;4.00;96078.00;;;;5121547;28;20232;-78
2022/01/09 01:42:59;;;;;;;0.60;0.60;;;4.80;89.70;3.90;96065.00;;;;5128195;28;20217;-78
2022/01/09 01:45:26;;;;;;;0.60;0.60;;;4.90;89.50;4.10;96060.00;;;;5121126;28;20273;-77
2022/01/09 01:47:53;;;;;;;0.50;0.50;;;4.90;88.70;4.30;96066.00;;;;5119913;28;20233;-78
2022/01/09 01:50:20;;;;;;;0.60;0.60;;;5.00;88.80;4.20;96068.00;;;;5120793;28;20308;-78
2022/01/09 01:52:51;;;;;;;0.50;0.50;;;5.00;88.80;4.30;96068.00;;;;5120764;28;20591;-77
2022/01/09 01:55:18;;;;;;;0.60;0.60;;;5.00;88.80;4.20;96069.00;;;;5120847;28;20213;-78
2022/01/09 01:57:46;;;;;;;0.60;0.60;;;5.10;88.70;4.30;96075.00;;;;5120611;28;20244;-79
2022/01/09 02:00:17;;;;;;;0.50;0.50;;;5.10;88.80;4.40;96071.00;;;;5120686;28;20197;-78
2022/01/09 02:02:44;;;;;;;0.60;0.60;;;5.10;88.10;4.20;96066.00;;;;5120718;28;20251;-77
2022/01/09 02:05:12;;;;;;;0.60;0.60;;;5.00;88.50;4.40;96069.00;;;;5120673;28;20209;-77
2022/01/09 02:07:41;;;;;;;0.50;0.50;;;5.10;88.40;4.40;96073.00;;;;5120667;28;20686;-78
2022/01/09 02:10:09;;;;;;;0.60;0.60;;;5.10;88.20;4.20;96079.00;;;;5120371;28;20222;-78
2022/01/09 02:12:39;;;;;;;0.70;0.70;;;5.10;88.60;4.20;96077.00;;;;5120709;28;20546;-77
2022/01/09 02:15:32;;;;;;;0.70;0.70;;;5.10;88.30;4.20;96071.00;;;;5120487;28;20229;-77
2022/01/09 02:17:59;;;;;;;0.80;0.80;;;5.00;88.70;4.20;96071.00;;;;5120510;28;20197;-78
2022/01/09 02:20:30;;;;;;;0.50;0.50;;;5.10;88.60;4.20;96091.00;;;;5120362;28;20652;-78
2022/01/09 02:22:57;;;;;;;0.60;0.60;;;5.00;88.60;4.20;96088.00;;;;5120450;28;20285;-77
2022/01/09 02:25:27;;;;;;;1.07;1.07;;;5.00;89.10;4.20;96099.00;;;;5120229;28;20349;-76
2022/01/09 02:27:56;;;;;;;0.50;0.50;;;5.00;88.70;4.10;96079.00;;;;5116986;28;20586;-78
2022/01/09 02:30:23;;;;;;;0.60;0.60;;;5.00;89.30;4.10;96085.00;;;;5117024;28;20265;-78
2022/01/09 02:32:49;;;;;;;0.50;0.50;;;5.00;89.20;4.20;96072.00;;;;5116871;28;20288;-77
2022/01/09 02:35:16;;;;;;;0.57;0.57;;;5.00;89.50;4.20;96078.00;;;;5116870;28;20190;-78
2022/01/09 02:37:43;;;;;;;0.97;0.97;;;5.00;89.70;4.00;96078.00;;;;5116592;28;20632;-77
2022/01/09 02:40:10;;;;;;;0.70;0.70;;;4.90;90.20;4.10;96080.00;;;;5116789;28;20198;-77
2022/01/09 02:42:37;;;;;;;0.60;0.60;;;4.90;90.70;4.00;96071.00;;;;5116643;28;20241;-78
2022/01/09 02:45:04;;;;;;;0.60;0.60;;;4.90;91.10;4.10;96075.00;;;;5116865;28;20584;-77
2022/01/09 02:47:33;;;;;;;0.60;0.60;;;4.90;90.40;4.10;96070.00;;;;5116861;28;20198;-77
2022/01/09 02:50:10;;;;;;;0.60;0.60;;;4.90;90.60;4.00;96049.00;;;;5098825;28;20300;-77
2022/01/09 02:52:48;;;;;;;0.60;0.60;;;4.80;90.70;4.00;96087.00;;;;5116600;28;20292;-75
2022/01/09 02:55:18;;;;;;;0.60;0.60;;;4.80;90.80;4.10;96077.00;;;;5116664;28;20292;-77
2022/01/09 02:57:48;;;;;;;0.50;0.50;;;4.80;91.00;4.00;96079.00;;;;5098631;28;20702;-77
2022/01/09 03:00:20;;;;;;;0.60;0.60;;;4.80;90.60;4.00;96091.00;;;;5116511;28;20225;-79
2022/01/09 03:02:47;;;;;;;0.60;0.60;;;4.80;91.30;4.00;96083.00;;;;5098657;28;20306;-77
2022/01/09 03:05:14;;;;;;;0.60;0.60;;;4.80;91.20;3.90;96081.00;;;;5116384;28;20245;-77
2022/01/09 03:07:44;;;;;;;0.60;0.60;;;4.80;91.80;4.10;96097.00;;;;5116315;28;20240;-77
2022/01/09 03:10:17;;;;;;;0.60;0.60;;;4.90;91.60;4.10;96096.00;;;;5116283;28;20218;-78
2022/01/09 03:12:45;;;;;;;0.50;0.50;;;4.90;91.80;4.20;96107.00;;;;5116218;28;20190;-77
2022/01/09 03:15:13;;;;;;;0.57;0.57;;;5.00;92.20;4.20;96107.00;;;;5116275;28;20210;-78
2022/01/09 03:17:40;;;;;;;0.53;0.53;;;5.00;92.20;4.30;96110.00;;;;5098217;28;20590;-78
2022/01/09 03:20:11;;;;;;;0.73;0.73;;;5.00;91.80;4.30;96114.00;;;;5116311;28;20376;-78
2022/01/09 03:22:38;;;;;;;0.50;0.50;;;5.10;92.30;4.10;96099.00;;;;5098184;28;20637;-76
2022/01/09 03:25:07;;;;;;;0.50;0.50;;;5.00;93.10;4.30;96113.00;;;;5116279;28;20198;-75
2022/01/09 03:27:33;;;;;;;0.50;0.50;;;5.00;93.10;4.30;96111.00;;;;5115987;28;20240;-78
2022/01/09 03:30:01;;;;;;;0.60;0.60;;;5.10;92.20;4.40;96115.00;;;;5116068;28;20201;-77
2022/01/09 03:32:27;;;;;;;0.50;0.50;;;5.10;91.70;4.30;96111.00;;;;5098165;28;20218;-77
2022/01/09 03:34:54;;;;;;;0.50;0.50;;;5.10;92.20;4.20;96117.00;;;;5115917;28;20230;-77
2022/01/09 03:37:20;;;;;;;0.60;0.60;;;5.00;92.30;4.30;96115.00;;;;5115987;28;20285;-77
2022/01/09 03:39:47;;;;;;;0.67;0.67;;;5.10;92.80;4.30;96133.00;;;;5114597;28;20277;-78
2022/01/09 03:42:13;;;;;;;0.60;0.60;;;5.10;93.20;4.40;96113.00;;;;5115944;28;20239;-78
2022/01/09 03:44:40;;;;;;;0.50;0.50;;;5.20;92.20;4.50;96118.00;;;;5115765;28;20225;-78
2022/01/09 03:47:07;;;;;;;0.60;0.60;;;5.20;92.50;4.40;96122.00;;;;5115595;28;20617;-78
2022/01/09 03:49:35;;;;;;;0.50;0.50;;;5.20;93.10;4.40;96131.00;;;;5115576;28;20204;-77
2022/01/09 03:52:02;;;;;;;0.50;0.50;;;5.20;93.10;4.50;96128.00;;;;5115572;28;20225;-77
2022/01/09 03:54:29;;;;;;;0.60;0.60;;;5.30;93.40;4.40;96123.00;;;;5115797;28;20277;-79
2022/01/09 03:56:57;;;;;;;0.60;0.60;;;5.20;93.20;4.30;96125.00;;;;5115608;28;20284;-76
2022/01/09 03:59:24;;;;;;;0.50;0.50;;;5.10;93.90;4.30;96129.00;;;;5119182;28;20194;-79
2022/01/09 04:01:51;;;;;;;0.60;0.60;;;5.10;93.60;4.40;96123.00;;;;5116425;28;20637;-76
2022/01/09 04:04:18;;;;;;;0.50;0.50;;;5.20;93.40;4.10;96131.00;;;;5116557;28;20292;-80
2022/01/09 04:06:48;;;;;;;0.60;0.60;;;5.20;94.20;4.50;96140.00;;;;5116380;28;20249;-76
2022/01/09 04:09:26;;;;;;;0.60;0.60;;;5.20;93.80;4.40;96139.00;;;;5115785;28;20605;-77
2022/01/09 04:12:02;;;;;;;0.50;0.50;;;5.20;94.20;4.30;96141.00;;;;5115277;28;20244;-75
2022/01/09 04:14:28;;;;;;;0.60;0.60;;;5.10;94.40;4.30;96152.00;;;;5115555;28;20544;-77
2022/01/09 04:16:56;;;;;;;0.50;0.50;;;5.10;94.90;4.30;96162.00;;;;5115830;28;20276;-78
2022/01/09 04:19:25;;;;;;;0.57;0.57;;;5.10;95.20;4.30;96160.00;;;;5115085;28;20209;-77
2022/01/09 04:21:52;;;;;;;0.60;0.60;;;5.10;95.50;4.30;96162.00;;;;5115146;28;20592;-77
2022/01/09 04:24:18;;;;;;;0.60;0.60;;;5.10;95.90;4.50;96168.00;;;;5097163;28;20226;-78
2022/01/09 04:26:45;;;;;;;0.80;0.80;;;5.20;95.10;4.30;96173.00;;;;5115199;28;20199;-78
2022/01/09 04:29:11;;;;;;;0.50;0.50;;;5.10;95.10;4.30;96189.00;;;;5115010;28;20546;-77
2022/01/09 04:31:38;;;;;;;0.50;0.50;;;5.10;94.90;4.50;96197.00;;;;5115052;28;20201;-76
2022/01/09 04:34:04;;;;;;;0.60;0.60;;;5.20;95.00;4.30;96227.00;;;;5115149;28;20190;-78
2022/01/09 04:36:31;;;;;;;0.60;0.60;;;5.10;95.10;4.30;96229.00;;;;5115115;28;20190;-77
2022/01/09 04:38:58;;;;;;;0.60;0.60;;;5.10;95.30;4.20;96242.00;;;;5115136;28;20284;-77
2022/01/09 04:41:24;;;;;;;0.60;0.60;;;5.10;95.90;4.30;96257.00;;;;5114924;28;20665;-78
2022/01/09 04:43:51;;;;;;;0.60;0.60;;;5.10;95.70;4.30;96261.00;;;;5114805;28;20541;-77
2022/01/09 04:46:24;;;;;;;0.70;0.70;;;5.10;95.10;4.10;96261.00;;;;5113728;28;20319;-75
2022/01/09 04:48:53;;;;;;;0.50;0.50;;;5.00;94.50;4.10;96265.00;;;;5096919;28;20547;-78
2022/01/09 04:51:20;;;;;;;0.60;0.60;;;4.90;94.30;4.10;96290.00;;;;5114100;28;20218;-78
2022/01/09 04:53:47;;;;;;;0.57;0.57;;;4.90;93.50;4.00;96284.00;;;;5114788;28;20560;-76
2022/01/09 04:56:13;;;;;;;0.60;0.60;;;4.90;94.20;4.10;96292.00;;;;5096648;28;20201;-77
2022/01/09 04:58:40;;;;;;;0.60;0.60;;;4.90;94.80;4.00;96287.00;;;;5096872;28;20200;-76
2022/01/09 05:01:06;;;;;;;0.60;0.60;;;4.90;94.10;4.00;96311.00;;;;5114670;28;20529;-78
2022/01/09 05:03:35;;;;;;;0.60;0.60;;;4.90;93.40;4.00;96317.00;;;;5114628;28;20298;-78
2022/01/09 05:06:02;;;;;;;0.60;0.60;;;4.80;94.10;4.10;96326.00;;;;5096590;28;20201;-77
2022/01/09 05:08:28;;;;;;;0.60;0.60;;;4.80;93.80;4.10;96333.00;;;;5118728;28;20249;-77
2022/01/09 05:10:55;;;;;;;0.70;0.70;;;4.90;93.90;3.90;96356.00;;;;5105079;28;20296;-77
2022/01/09 05:13:22;;;;;;;0.57;0.57;;;4.80;92.90;3.80;96350.00;;;;5105438;28;20201;-77
2022/01/09 05:15:48;;;;;;;0.50;0.50;;;4.70;93.30;3.80;96353.00;;;;5116121;28;20197;-77
2022/01/09 05:18:15;;;;;;;0.50;0.50;;;4.60;93.10;3.70;96380.00;;;;5115603;28;20197;-77
2022/01/09 05:20:42;;;;;;;0.50;0.50;;;4.50;94.00;3.70;96396.00;;;;5114375;28;20229;-77
2022/01/09 05:23:11;;;;;;;0.50;0.50;;;4.50;92.80;3.50;96391.00;;;;5120742;28;20210;-75
2022/01/09 05:25:38;;;;;;;0.60;0.60;;;4.40;93.10;3.60;96388.00;;;;5123349;28;20242;-77
2022/01/09 05:28:08;;;;;;;0.60;0.60;;;4.40;93.50;3.30;96413.00;;;;5101024;28;20206;-77
2022/01/09 05:30:34;;;;;;;0.60;0.60;;;4.30;93.60;3.50;96414.00;;;;5114762;28;20226;-76
2022/01/09 05:33:01;;;;;;;0.60;0.60;;;4.30;93.60;3.30;96403.00;;;;5096632;28;20745;-77
2022/01/09 05:35:27;;;;;;;0.70;0.70;;;4.20;94.10;3.30;96403.00;;;;5096451;28;20209;-76
2022/01/09 05:37:54;;;;;;;0.70;0.70;;;4.20;94.00;3.30;96436.00;;;;5114358;28;20340;-76
2022/01/09 05:40:21;;;;;;;0.60;0.60;;;4.20;94.30;3.20;96448.00;;;;5114220;28;20194;-77
2022/01/09 05:42:48;;;;;;;0.60;0.60;;;4.10;94.10;3.30;96458.00;;;;5114147;28;20229;-75
2022/01/09 05:45:17;;;;;;;0.50;0.50;;;4.10;94.70;3.20;96462.00;;;;5114063;28;20297;-76
2022/01/09 05:47:46;;;;;;;0.60;0.60;;;4.10;93.90;3.30;96450.00;;;;5114149;28;20232;-75
2022/01/09 05:50:12;;;;;;;0.50;0.50;;;4.10;93.40;3.30;96425.00;;;;5114069;28;20201;-77
2022/01/09 05:52:39;;;;;;;0.60;0.60;;;4.10;93.90;3.40;96492.00;;;;5096066;28;20193;-73
2022/01/09 05:55:10;;;;;;;0.53;0.53;;;4.20;93.40;3.30;96507.00;;;;5114058;28;20198;-76
2022/01/09 05:57:36;;;;;;;0.60;0.60;;;4.20;93.80;3.50;96484.00;;;;5114109;28;20197;-75
2022/01/09 06:00:05;;;;;;;0.70;0.70;;;4.30;93.00;3.50;96493.00;;;;5113985;28;20252;-76
2022/01/09 06:02:32;;;;;;;0.60;0.60;;;4.30;93.20;3.50;96511.00;;;;5115355;28;20209;-76
2022/01/09 06:04:59;;;;;;;0.60;0.60;;;4.40;93.30;3.50;96517.00;;;;5117340;28;20252;-77
2022/01/09 06:07:25;;;;;;;0.50;0.50;;;4.40;92.60;3.50;96521.00;;;;5117493;28;20708;-77
2022/01/09 06:09:52;;;;;;;0.60;0.60;;;4.40;91.50;3.60;96504.00;;;;5117455;28;20245;-76
2022/01/09 06:12:20;;;;;;;0.60;0.60;;;4.40;92.60;3.50;96529.00;;;;5117414;28;20734;-77
2022/01/09 06:14:47;;;;;;;0.60;0.60;;;4.40;91.90;3.50;96525.00;;;;5117390;28;20285;-76
2022/01/09 06:17:14;;;;;;;0.60;0.60;;;4.40;91.30;3.60;96537.00;;;;5117244;28;20201;-77
2022/01/09 06:19:41;;;;;;;0.60;0.60;;;4.40;91.20;3.70;96534.00;;;;5117285;28;20193;-75
2022/01/09 06:22:07;;;;;;;0.50;0.50;;;4.50;91.80;3.60;96544.00;;;;5117962;28;20210;-75
2022/01/09 06:24:34;;;;;;;0.60;0.60;;;4.50;92.20;3.70;96549.00;;;;5117185;28;20198;-76
2022/01/09 06:27:00;;;;;;;1.30;0.80;;;4.60;90.50;3.70;96546.00;;;;5118049;28;20228;-76
2022/01/09 06:29:29;;;;;;;0.50;0.50;;;4.50;91.80;3.70;96560.00;;;;5117002;28;20208;-77
2022/01/09 06:31:55;;;;;;;0.60;0.60;;;4.50;91.10;3.80;96580.00;;;;5117114;28;20249;-75
2022/01/09 06:34:22;;;;;;;0.60;0.60;;;4.50;91.30;3.80;96582.00;;;;5099300;28;20336;-77
2022/01/09 06:36:49;;;;;;;0.90;0.90;;;4.50;91.50;3.70;96576.00;;;;5117009;28;20190;-77
2022/01/09 06:39:16;;;;;;;0.50;0.50;;;4.50;90.20;3.60;96582.00;;;;5116733;28;20228;-76
2022/01/09 06:41:42;;;;;;;0.70;0.70;;;4.40;91.10;3.70;96584.00;;;;5116953;28;20274;-77
2022/01/09 06:44:09;;;;;;;0.60;0.60;;;4.50;90.70;3.70;96586.00;;;;5116884;28;20222;-76
2022/01/09 06:46:35;;;;;;;0.60;0.60;;;4.50;90.50;3.70;96605.00;;;;5098875;28;20644;-75
2022/01/09 06:49:02;;;;;;;0.50;0.50;;;4.60;90.80;3.70;96600.00;;;;5116541;28;20287;-77
2022/01/09 06:51:29;;;;;;;0.60;0.60;;;4.60;91.00;3.80;96607.00;;;;5116677;28;20247;-77
2022/01/09 06:53:59;;;;;;;0.60;0.60;;;4.60;90.80;3.80;96631.00;;;;5098728;28;20238;-77
2022/01/09 06:56:25;;;;;;;0.80;0.80;;;4.60;90.00;3.80;96622.00;;;;5098623;28;20205;-76
2022/01/09 06:58:52;;;;;;;1.00;1.00;;;4.60;90.20;3.80;96635.00;;;;5117097;28;20232;-77
2022/01/09 07:01:18;;;;;;;0.60;0.60;;;4.60;89.80;3.70;96657.00;;;;5116453;28;20217;-76
2022/01/09 07:03:45;;;;;;;0.60;0.60;;;4.60;89.50;3.70;96657.00;;;;5116658;28;20281;-75
2022/01/09 07:06:12;;;;;;;0.50;0.50;;;4.60;88.90;3.70;96648.00;;;;5116574;28;20264;-77
2022/01/09 07:08:38;;;;;;;0.60;0.60;;;4.60;90.20;3.70;96651.00;;;;5098684;28;20305;-77
2022/01/09 07:11:07;;;;;;;0.50;0.50;;;4.60;90.40;3.60;96660.00;;;;5116407;28;20293;-77
2022/01/09 07:13:34;;;;;;;0.60;0.60;;;4.50;90.00;3.70;96664.00;;;;5116117;28;20244;-77
2022/01/09 07:16:03;;;;;;;1.20;1.10;;;4.50;88.30;3.70;96670.00;;;;5116346;28;20193;-77
2022/01/09 07:18:30;;;;;;;0.70;0.70;;;4.60;87.60;3.80;96686.00;;;;5116205;28;20318;-77
2022/01/09 07:20:56;;;;;;;0.60;0.60;;;4.60;87.50;3.70;96714.00;;;;5116033;28;20285;-76
2022/01/09 07:23:23;;;;;;;2.63;1.27;;;4.50;87.30;3.70;96687.00;;;;5098080;28;20260;-77
2022/01/09 07:25:49;;;;;;;0.70;0.70;;;4.60;86.20;3.70;96716.00;;;;5098342;28;20205;-77
2022/01/09 07:28:18;;;;;;;0.60;0.60;;;4.60;86.80;3.70;96698.00;;;;5116140;28;20296;-76
2022/01/09 07:30:47;;;;;;;0.60;0.60;;;4.60;85.80;3.80;96698.00;;;;5116012;28;20286;-77
2022/01/09 07:33:15;;;;;;;0.67;0.67;;;4.60;86.40;3.70;96696.00;;;;5116133;28;20194;-77
2022/01/09 07:35:42;;;;;;;0.60;0.60;;;4.50;87.10;3.70;96710.00;;;;5115995;28;20239;-77
2022/01/09 07:38:09;;;;;;;1.60;0.80;;;4.60;86.30;3.70;96709.00;;;;5116042;28;20205;-77
2022/01/09 07:40:35;;;;;;;1.67;1.17;;;4.50;86.30;3.70;96700.00;;;;5115846;28;20300;-76
2022/01/09 07:43:04;;;;;;;0.60;0.60;;;4.50;85.10;3.60;96750.00;;;;5115886;28;20617;-76
2022/01/09 07:45:32;;;;;;;0.60;0.60;;;4.50;84.80;3.60;96752.00;;;;5115917;28;20318;-77
2022/01/09 07:48:02;;;;;;;0.70;0.70;;;4.50;85.50;3.60;96721.00;;;;5115845;28;20237;-77
2022/01/09 07:50:30;;;;;;;2.50;1.00;;;4.50;85.50;3.50;96731.00;;;;5097765;28;20225;-75
2022/01/09 07:52:57;;;;;;;0.87;0.87;;;4.40;85.70;3.60;96734.00;;;;5115767;28;20285;-77
2022/01/09 07:55:24;;;;;;;0.50;0.50;;;4.40;85.60;3.50;96757.00;;;;5115793;28;20277;-77
2022/01/09 07:57:53;;;;;;;0.57;0.57;;;4.30;84.70;3.40;96775.00;;;;5115659;28;20190;-77
2022/01/09 08:00:21;;;;;;;1.20;0.87;;;4.20;85.20;3.40;96766.00;;;;5097805;28;20198;-77
2022/01/09 08:02:49;;;;;;;2.20;1.17;;;4.20;85.80;3.40;96742.00;;;;5115554;28;20286;-77
2022/01/09 08:05:16;;;;;;;0.67;0.67;;;4.20;86.00;3.40;96775.00;;;;5115406;28;20216;-78
2022/01/09 08:07:43;;;;;;;0.77;0.77;;;4.30;86.20;3.40;96777.00;;;;5115519;28;20228;-77
2022/01/09 08:10:13;;;;;;;0.60;0.60;;;4.20;83.50;3.40;96773.00;;;;5115350;28;20197;-77
2022/01/09 08:12:39;;;;;;;0.60;0.60;;;4.20;84.50;3.40;96783.00;;;;5115481;28;20286;-77
2022/01/09 08:15:07;;;;;;;0.80;0.70;;;4.20;84.20;3.50;96790.00;;;;5114342;28;20301;-77
2022/01/09 08:17:34;;;;;;;1.40;1.37;;;4.20;84.10;3.50;96794.00;;;;5115373;28;20190;-77
2022/01/09 08:20:01;;;;;;;0.50;0.50;;;4.30;81.60;3.60;96812.00;;;;5097312;28;20309;-77
2022/01/09 08:22:29;;;;;;;0.60;0.60;;;4.40;81.50;3.50;96804.00;;;;5115238;28;20209;-77
2022/01/09 08:24:56;;;;;;;0.73;0.73;;;4.30;81.70;3.50;96831.00;;;;5113423;28;20547;-78
2022/01/09 08:27:25;;;;;;;1.53;1.53;;;4.30;81.70;3.50;96827.00;;;;5115139;28;20202;-77
2022/01/09 08:29:52;;;;;;;0.57;0.57;;;4.40;82.30;3.60;96837.00;;;;5115292;28;20201;-77
2022/01/09 08:32:21;;;;;;;0.60;0.60;;;4.40;82.00;3.60;96828.00;;;;5115195;28;20228;-76
2022/01/09 08:34:47;;;;;;;0.57;0.57;;;4.40;81.10;3.60;96844.00;;;;5115530;28;20483;-78
2022/01/09 08:37:14;;;;;;;0.60;0.60;;;4.50;80.50;3.60;96858.00;;;;5115036;28;20284;-78
2022/01/09 08:39:45;;;;;;;5.80;2.10;;;4.40;80.90;3.60;96855.00;;;;5114952;28;20197;-77
2022/01/09 08:42:12;;;;;;;2.10;2.00;;;4.50;79.30;3.70;96848.00;;;;5096888;28;20350;-77
2022/01/09 08:44:39;;;;;;;0.70;0.70;;;4.50;79.20;3.70;96871.00;;;;5114883;28;20520;-78
2022/01/09 08:47:06;;;;;;;0.60;0.60;;;4.50;78.20;3.80;96849.00;;;;5114782;28;20243;-78
2022/01/09 08:49:33;;;;;;;0.60;0.60;;;4.60;78.90;3.80;96872.00;;;;5114868;28;20197;-77
2022/01/09 08:52:00;;;;;;;0.80;0.80;;;4.60;79.20;3.70;96874.00;;;;5114715;28;20547;-77
2022/01/09 08:54:27;;;;;;;0.70;0.70;;;4.70;78.30;3.90;96879.00;;;;5114823;28;20222;-77
2022/01/09 08:56:53;;;;;;;1.03;1.03;;;4.70;77.30;3.90;96882.00;;;;5114977;28;20194;-78
2022/01/09 08:59:20;;;;;;;0.50;0.50;;;4.80;77.20;4.00;96879.00;;;;5115127;28;20249;-78
2022/01/09 09:01:47;;;;;;;0.50;0.50;;;4.80;76.20;3.90;96881.00;;;;5104009;28;20193;-78
2022/01/09 09:04:16;;;;;;;0.60;0.60;;;4.80;76.00;4.00;96874.00;;;;5124827;28;20300;-78
2022/01/09 09:06:46;;;;;;;0.57;0.57;;;4.80;75.90;4.00;96892.00;;;;5122925;28;20659;-78
2022/01/09 09:09:13;;;;;;;14.33;1.40;;;4.80;74.80;4.00;96889.00;;;;5115810;28;20198;-77
2022/01/09 09:11:42;;;;;;;0.70;0.70;;;4.90;74.00;4.10;96905.00;;;;5115350;28;20291;-78
2022/01/09 09:14:09;;;;;;;0.70;0.70;;;4.90;74.20;4.00;96909.00;;;;5114816;28;20247;-78
2022/01/09 09:16:36;;;;;;;0.80;0.80;;;4.80;75.30;3.90;96901.00;;;;5124493;28;20228;-77
2022/01/09 09:19:03;;;;;;;0.70;0.70;;;4.80;75.50;4.00;96917.00;;;;5106631;28;20216;-77
2022/01/09 09:21:29;;;;;;;0.60;0.60;;;4.90;74.90;4.00;96908.00;;;;5118553;28;20232;-78
2022/01/09 09:23:56;;;;;;;0.80;0.80;;;4.80;75.60;4.10;96906.00;;;;5115366;28;20233;-78
2022/01/09 09:26:22;;;;;;;0.70;0.70;;;4.90;76.40;4.00;96921.00;;;;5096517;28;20232;-78
2022/01/09 09:28:52;;;;;;;0.50;0.50;;;4.80;77.40;4.00;96921.00;;;;5114403;28;20243;-78
2022/01/09 09:31:21;;;;;;;0.50;0.50;;;4.90;77.60;4.00;96939.00;;;;5114173;28;20221;-77
2022/01/09 09:33:48;;;;;;;0.70;0.70;;;4.80;78.80;4.10;96945.00;;;;5114139;28;20190;-78
2022/01/09 09:36:15;;;;;;;0.70;0.70;;;4.90;79.60;4.10;96937.00;;;;5115921;28;20273;-77
2022/01/09 09:38:41;;;;;;;0.73;0.73;;;5.00;79.50;4.10;96939.00;;;;5117800;28;20213;-79
2022/01/09 09:41:08;;;;;;;0.57;0.57;;;4.90;78.80;4.20;96948.00;;;;5117722;28;20214;-78
2022/01/09 09:43:35;;;;;;;0.90;0.90;;;5.00;79.00;4.20;96948.00;;;;5117812;28;20278;-78
2022/01/09 09:46:04;;;;;;;0.60;0.60;;;5.00;78.90;4.10;96945.00;;;;5117653;28;20655;-78
2022/01/09 09:48:31;;;;;;;0.60;0.60;;;5.00;79.60;4.20;96954.00;;;;5117680;28;20273;-78
2022/01/09 09:51:00;;;;;;;0.50;0.50;;;5.00;78.70;4.20;96966.00;;;;5117487;28;20228;-78
2022/01/09 09:53:28;;;;;;;0.60;0.60;;;5.00;79.30;4.10;96955.00;;;;5117630;28;20194;-80
2022/01/09 09:55:55;;;;;;;0.50;0.50;;;4.90;80.10;4.00;96959.00;;;;5116646;28;20206;-78
2022/01/09 09:58:22;;;;;;;0.87;0.80;;;4.90;80.30;4.30;96962.00;;;;5117824;28;20289;-78
2022/01/09 10:00:53;;;;;;;0.50;0.50;;;5.00;80.10;4.40;96950.00;;;;5117679;28;20529;-78
2022/01/09 10:03:29;;;;;;;0.60;0.60;;;5.10;78.50;4.40;96956.00;;;;5117297;28;20277;-79
2022/01/09 10:05:56;;;;;;;0.57;0.57;;;5.20;78.60;4.40;96964.00;;;;5099309;28;20374;-78
2022/01/09 10:08:35;;;;;;;0.70;0.70;;;5.10;78.20;4.50;96961.00;;;;5117398;28;20300;-78
2022/01/09 10:11:13;;;;;;;0.60;0.60;;;5.10;77.80;4.40;96972.00;;;;5117070;28;20231;-78
2022/01/09 10:13:40;;;;;;;0.60;0.60;;;5.10;77.90;4.30;96972.00;;;;5117257;28;20193;-79
2022/01/09 10:16:08;;;;;;;0.50;0.50;;;5.10;77.50;4.50;96980.00;;;;5099410;28;20220;-79
2022/01/09 10:18:42;;;;;;;0.60;0.60;;;5.30;77.90;4.50;96973.00;;;;5117478;28;20269;-77
2022/01/09 10:21:14;;;;;;;0.70;0.70;;;5.30;78.90;4.50;96980.00;;;;5117618;28;20200;-79
2022/01/09 10:24:01;;;;;;;0.80;0.80;;;5.30;79.00;4.40;96977.00;;;;5117024;28;20297;-77
2022/01/09 10:26:30;;;;;;;0.70;0.70;;;5.20;77.90;4.40;96973.00;;;;5116931;28;20206;-78
2022/01/09 10:28:57;;;;;;;0.60;0.60;;;5.20;78.20;4.60;96993.00;;;;5116975;28;20234;-78
2022/01/09 10:31:24;;;;;;;1.63;1.10;;;5.30;79.90;4.60;96993.00;;;;5116898;28;20309;-78
2022/01/09 10:34:01;;;;;;;1.13;1.13;;;5.40;80.40;4.40;96988.00;;;;5116772;28;20685;-78
2022/01/09 10:36:37;;;;;;;0.60;0.60;;;5.20;79.50;4.60;96985.00;;;;5117038;28;20194;-78
2022/01/09 10:39:07;;;;;;;0.70;0.70;;;5.30;79.50;4.60;97004.00;;;;5099007;28;20264;-78
2022/01/09 10:41:50;;;;;;;0.50;0.50;;;5.40;80.50;4.70;97004.00;;;;5116972;28;20201;-78
2022/01/09 10:44:20;;;;;;;0.60;0.60;;;5.50;79.30;4.60;97007.00;;;;5098986;28;20228;-78
2022/01/09 10:46:57;;;;;;;0.73;0.73;;;5.40;80.60;4.70;97000.00;;;;5098947;28;20506;-78
2022/01/09 10:49:36;;;;;;;0.60;0.60;;;5.40;81.50;4.80;97014.00;;;;5116121;28;20520;-78
2022/01/09 10:52:18;;;;;;;0.70;0.70;;;5.60;80.90;4.80;97011.00;;;;5116655;28;20206;-78
2022/01/09 10:54:46;;;;;;;0.60;0.60;;;5.50;80.30;4.70;97013.00;;;;5116795;28;20194;-79
2022/01/09 10:57:17;;;;;;;0.63;0.63;;;5.50;79.70;4.70;97010.00;;;;5116639;28;20214;-78
2022/01/09 10:59:44;;;;;;;0.53;0.53;;;5.50;80.00;4.70;97016.00;;;;5116799;28;20277;-78
2022/01/09 11:02:12;;;;;;;0.60;0.60;;;5.50;80.90;4.70;97001.00;;;;5098697;28;20336;-77
2022/01/09 11:04:43;;;;;;;0.60;0.60;;;5.50;80.60;4.80;97013.00;;;;5116576;28;20212;-78
2022/01/09 11:07:10;;;;;;;0.70;0.70;;;5.60;79.40;4.70;97014.00;;;;5116436;28;20252;-79
2022/01/09 11:09:39;;;;;;;0.70;0.70;;;5.50;79.80;4.70;97012.00;;;;5098627;28;20674;-78
2022/01/09 11:12:08;;;;;;;0.50;0.50;;;5.40;79.40;4.90;97002.00;;;;5098330;28;20221;-78
2022/01/09 11:14:39;;;;;;;0.73;0.73;;;5.50;79.00;4.80;97016.00;;;;5116417;28;20277;-77